sensor_id;sensor_type;location;lat;lon;timestamp;pressure;altitude;pressure_sealevel;temperature;humidity
74958;BME280;63741;42.624;26.276;2023-04-03T00:00:53;99053.16;;;11.68;58.15
74958;BME280;63741;42.624;26.276;2023-04-03T00:03:20;99056.25;;;11.92;57.69
74958;BME280;63741;42.624;26.276;2023-04-03T00:05:47;99048.84;;;11.57;58.69
74958;BME280;63741;42.624;26.276;2023-04-03T00:08:14;99057.47;;;11.49;57.63
74958;BME280;63741;42.624;26.276;2023-04-03T00:10:42;99046.31;;;11.46;58.56
74958;BME280;63741;42.624;26.276;2023-04-03T00:13:09;99046.59;;;11.23;59.04
74958;BME280;63741;42.624;26.276;2023-04-03T00:15:37;99041.59;;;11.30;58.55
74958;BME280;63741;42.624;26.276;2023-04-03T00:18:04;99023.88;;;11.30;58.46
74958;BME280;63741;42.624;26.276;2023-04-03T00:20:32;99025.28;;;11.34;58.69
74958;BME280;63741;42.624;26.276;2023-04-03T00:22:59;99020.13;;;11.33;59.11
74958;BME280;63741;42.624;26.276;2023-04-03T00:25:27;99024.16;;;11.37;58.66
74958;BME280;63741;42.624;26.276;2023-04-03T00:27:54;99018.44;;;11.22;58.96
74958;BME280;63741;42.624;26.276;2023-04-03T00:30:21;99028.13;;;10.93;60.11
74958;BME280;63741;42.624;26.276;2023-04-03T00:32:49;99031.94;;;11.00;60.21
74958;BME280;63741;42.624;26.276;2023-04-03T00:35:17;99021.47;;;10.98;60.72
74958;BME280;63741;42.624;26.276;2023-04-03T00:37:44;99035.41;;;11.00;61.01
74958;BME280;63741;42.624;26.276;2023-04-03T00:40:14;99031.38;;;10.56;60.77
74958;BME280;63741;42.624;26.276;2023-04-03T00:42:43;99039.31;;;10.56;60.43
74958;BME280;63741;42.624;26.276;2023-04-03T00:47:38;99050.97;;;10.53;60.41
74958;BME280;63741;42.624;26.276;2023-04-03T00:50:07;99035.97;;;10.54;60.05
74958;BME280;63741;42.624;26.276;2023-04-03T00:52:35;99040.56;;;10.52;59.96
74958;BME280;63741;42.624;26.276;2023-04-03T00:55:06;99049.25;;;10.33;60.75
74958;BME280;63741;42.624;26.276;2023-04-03T00:57:34;99061.78;;;10.20;60.53
74958;BME280;63741;42.624;26.276;2023-04-03T01:00:07;99059.63;;;9.83;61.11
74958;BME280;63741;42.624;26.276;2023-04-03T01:02:35;99045.13;;;9.45;63.25
74958;BME280;63741;42.624;26.276;2023-04-03T01:05:04;99053.13;;;9.55;63.55
74958;BME280;63741;42.624;26.276;2023-04-03T01:07:31;99052.34;;;9.75;62.63
74958;BME280;63741;42.624;26.276;2023-04-03T01:10:03;99056.25;;;9.81;62.58
74958;BME280;63741;42.624;26.276;2023-04-03T01:12:33;99053.13;;;9.87;62.02
74958;BME280;63741;42.624;26.276;2023-04-03T01:15:06;99050.13;;;9.80;63.08
74958;BME280;63741;42.624;26.276;2023-04-03T01:22:47;99066.63;;;9.73;63.39
74958;BME280;63741;42.624;26.276;2023-04-03T01:25:19;99069.47;;;9.81;62.35
74958;BME280;63741;42.624;26.276;2023-04-03T01:27:46;99074.31;;;9.44;64.46
74958;BME280;63741;42.624;26.276;2023-04-03T01:30:16;99084.56;;;9.26;63.28
74958;BME280;63741;42.624;26.276;2023-04-03T01:32:43;99076.59;;;9.37;64.04
74958;BME280;63741;42.624;26.276;2023-04-03T01:35:12;99073.84;;;9.39;63.77
74958;BME280;63741;42.624;26.276;2023-04-03T01:37:39;99069.06;;;9.32;62.80
74958;BME280;63741;42.624;26.276;2023-04-03T01:40:06;99066.16;;;9.47;61.97
74958;BME280;63741;42.624;26.276;2023-04-03T01:42:33;99060.81;;;9.58;62.21
74958;BME280;63741;42.624;26.276;2023-04-03T01:45:00;99054.72;;;9.78;62.24
74958;BME280;63741;42.624;26.276;2023-04-03T01:47:27;99062.69;;;9.67;63.59
74958;BME280;63741;42.624;26.276;2023-04-03T01:49:55;99059.34;;;9.65;62.87
74958;BME280;63741;42.624;26.276;2023-04-03T01:52:22;99071.66;;;9.76;62.72
74958;BME280;63741;42.624;26.276;2023-04-03T01:54:50;99069.81;;;9.87;62.68
74958;BME280;63741;42.624;26.276;2023-04-03T01:57:17;99064.75;;;9.63;64.02
74958;BME280;63741;42.624;26.276;2023-04-03T01:59:44;99067.66;;;9.60;64.00
74958;BME280;63741;42.624;26.276;2023-04-03T02:02:11;99074.59;;;9.61;62.77
74958;BME280;63741;42.624;26.276;2023-04-03T02:04:39;99071.63;;;9.55;64.16
74958;BME280;63741;42.624;26.276;2023-04-03T02:07:06;99074.31;;;9.44;63.10
74958;BME280;63741;42.624;26.276;2023-04-03T02:09:33;99071.69;;;9.44;63.50
74958;BME280;63741;42.624;26.276;2023-04-03T02:12:00;99075.78;;;8.93;63.52
74958;BME280;63741;42.624;26.276;2023-04-03T02:14:27;99081.84;;;9.05;64.05
74958;BME280;63741;42.624;26.276;2023-04-03T02:16:54;99072.13;;;9.17;63.29
74958;BME280;63741;42.624;26.276;2023-04-03T02:19:22;99064.06;;;9.29;63.51
74958;BME280;63741;42.624;26.276;2023-04-03T02:21:49;99069.66;;;9.36;63.15
74958;BME280;63741;42.624;26.276;2023-04-03T02:24:16;99073.63;;;9.30;63.92
74958;BME280;63741;42.624;26.276;2023-04-03T02:26:43;99072.44;;;9.34;63.88
74958;BME280;63741;42.624;26.276;2023-04-03T02:29:10;99076.50;;;9.39;62.82
74958;BME280;63741;42.624;26.276;2023-04-03T02:31:37;99088.25;;;9.34;61.94
74958;BME280;63741;42.624;26.276;2023-04-03T02:34:04;99091.28;;;9.30;62.72
74958;BME280;63741;42.624;26.276;2023-04-03T02:36:34;99098.72;;;9.25;61.33
74958;BME280;63741;42.624;26.276;2023-04-03T02:39:04;99093.72;;;8.99;61.80
74958;BME280;63741;42.624;26.276;2023-04-03T02:41:31;99090.25;;;8.88;62.76
74958;BME280;63741;42.624;26.276;2023-04-03T02:44:09;99091.00;;;8.90;62.91
74958;BME280;63741;42.624;26.276;2023-04-03T02:46:37;99095.63;;;8.97;62.07
74958;BME280;63741;42.624;26.276;2023-04-03T02:49:04;99089.81;;;8.71;63.53
74958;BME280;63741;42.624;26.276;2023-04-03T02:51:31;99090.28;;;8.76;64.43
74958;BME280;63741;42.624;26.276;2023-04-03T02:53:58;99083.91;;;8.90;62.68
74958;BME280;63741;42.624;26.276;2023-04-03T02:56:29;99076.22;;;8.87;62.86
74958;BME280;63741;42.624;26.276;2023-04-03T02:58:57;99076.22;;;8.87;62.89
74958;BME280;63741;42.624;26.276;2023-04-03T03:01:24;99087.53;;;8.67;64.68
74958;BME280;63741;42.624;26.276;2023-04-03T03:03:51;99082.72;;;8.83;64.41
74958;BME280;63741;42.624;26.276;2023-04-03T03:06:18;99090.97;;;8.78;62.97
74958;BME280;63741;42.624;26.276;2023-04-03T03:08:45;99084.16;;;8.87;62.82
74958;BME280;63741;42.624;26.276;2023-04-03T03:11:12;99084.28;;;8.74;63.83
74958;BME280;63741;42.624;26.276;2023-04-03T03:13:39;99086.09;;;8.85;62.81
74958;BME280;63741;42.624;26.276;2023-04-03T03:16:06;99089.31;;;8.89;63.48
74958;BME280;63741;42.624;26.276;2023-04-03T03:18:34;99086.69;;;8.89;63.67
74958;BME280;63741;42.624;26.276;2023-04-03T03:21:02;99087.25;;;8.92;62.79
74958;BME280;63741;42.624;26.276;2023-04-03T03:23:31;99093.25;;;8.94;62.80
74958;BME280;63741;42.624;26.276;2023-04-03T03:26:04;99093.03;;;8.86;62.54
74958;BME280;63741;42.624;26.276;2023-04-03T03:28:34;99094.34;;;9.03;62.33
74958;BME280;63741;42.624;26.276;2023-04-03T03:31:01;99091.31;;;8.96;62.87
74958;BME280;63741;42.624;26.276;2023-04-03T03:33:30;99094.97;;;8.84;63.31
74958;BME280;63741;42.624;26.276;2023-04-03T03:35:57;99096.75;;;8.72;63.29
74958;BME280;63741;42.624;26.276;2023-04-03T03:38:24;99089.19;;;8.79;63.90
74958;BME280;63741;42.624;26.276;2023-04-03T03:40:52;99091.09;;;8.88;62.71
74958;BME280;63741;42.624;26.276;2023-04-03T03:43:21;99098.78;;;9.02;62.55
74958;BME280;63741;42.624;26.276;2023-04-03T03:45:51;99101.78;;;8.86;61.92
74958;BME280;63741;42.624;26.276;2023-04-03T03:48:20;99102.75;;;8.85;63.26
74958;BME280;63741;42.624;26.276;2023-04-03T03:50:48;99094.13;;;8.72;62.71
74958;BME280;63741;42.624;26.276;2023-04-03T03:53:16;99099.97;;;8.65;63.21
74958;BME280;63741;42.624;26.276;2023-04-03T03:55:43;99100.00;;;8.53;64.41
74958;BME280;63741;42.624;26.276;2023-04-03T03:58:10;99089.06;;;8.47;64.05
74958;BME280;63741;42.624;26.276;2023-04-03T04:00:37;99084.16;;;8.42;63.51
74958;BME280;63741;42.624;26.276;2023-04-03T04:03:04;99082.97;;;8.46;63.46
74958;BME280;63741;42.624;26.276;2023-04-03T04:05:32;99086.22;;;8.50;63.17
74958;BME280;63741;42.624;26.276;2023-04-03T04:08:00;99082.72;;;8.38;63.46
74958;BME280;63741;42.624;26.276;2023-04-03T04:10:27;99079.34;;;8.36;64.20
74958;BME280;63741;42.624;26.276;2023-04-03T04:12:55;99070.69;;;8.34;63.57
74958;BME280;63741;42.624;26.276;2023-04-03T04:15:26;99066.53;;;8.43;64.67
74958;BME280;63741;42.624;26.276;2023-04-03T04:17:55;99064.38;;;8.48;64.20
74958;BME280;63741;42.624;26.276;2023-04-03T04:20:22;99064.16;;;8.51;64.82
74958;BME280;63741;42.624;26.276;2023-04-03T04:22:49;99061.03;;;8.57;64.74
74958;BME280;63741;42.624;26.276;2023-04-03T04:25:18;99065.00;;;8.51;64.45
74958;BME280;63741;42.624;26.276;2023-04-03T04:27:45;99063.44;;;8.71;64.22
74958;BME280;63741;42.624;26.276;2023-04-03T04:30:14;99071.69;;;8.55;63.68
74958;BME280;63741;42.624;26.276;2023-04-03T04:32:43;99067.69;;;8.16;63.38
74958;BME280;63741;42.624;26.276;2023-04-03T04:35:10;99058.41;;;7.88;63.09
74958;BME280;63741;42.624;26.276;2023-04-03T04:37:42;99058.53;;;7.87;63.39
74958;BME280;63741;42.624;26.276;2023-04-03T04:40:10;99070.66;;;8.11;62.52
74958;BME280;63741;42.624;26.276;2023-04-03T04:42:38;99065.78;;;8.29;63.56
74958;BME280;63741;42.624;26.276;2023-04-03T04:45:06;99076.69;;;8.25;63.98
74958;BME280;63741;42.624;26.276;2023-04-03T04:47:35;99085.97;;;8.53;62.80
74958;BME280;63741;42.624;26.276;2023-04-03T04:50:03;99083.75;;;8.24;63.85
74958;BME280;63741;42.624;26.276;2023-04-03T04:52:31;99076.25;;;8.42;63.47
74958;BME280;63741;42.624;26.276;2023-04-03T04:54:58;99078.44;;;8.48;63.82
74958;BME280;63741;42.624;26.276;2023-04-03T04:57:26;99084.06;;;8.66;63.31
74958;BME280;63741;42.624;26.276;2023-04-03T04:59:55;99074.22;;;8.57;63.20
74958;BME280;63741;42.624;26.276;2023-04-03T05:02:22;99083.81;;;8.80;63.60
74958;BME280;63741;42.624;26.276;2023-04-03T05:04:50;99087.72;;;8.97;63.16
74958;BME280;63741;42.624;26.276;2023-04-03T05:07:22;99093.22;;;9.17;63.16
74958;BME280;63741;42.624;26.276;2023-04-03T05:09:49;99106.38;;;9.28;62.82
74958;BME280;63741;42.624;26.276;2023-04-03T05:12:17;99101.69;;;9.31;62.80
74958;BME280;63741;42.624;26.276;2023-04-03T05:14:51;99113.19;;;9.42;64.04
74958;BME280;63741;42.624;26.276;2023-04-03T05:17:18;99120.69;;;9.25;64.03
74958;BME280;63741;42.624;26.276;2023-04-03T05:19:49;99132.03;;;9.37;65.09
74958;BME280;63741;42.624;26.276;2023-04-03T05:22:19;99145.50;;;9.34;64.31
74958;BME280;63741;42.624;26.276;2023-04-03T05:24:46;99150.41;;;9.39;63.55
74958;BME280;63741;42.624;26.276;2023-04-03T05:27:14;99148.00;;;9.47;65.07
74958;BME280;63741;42.624;26.276;2023-04-03T05:29:44;99152.97;;;9.61;64.28
74958;BME280;63741;42.624;26.276;2023-04-03T05:32:16;99149.06;;;9.87;63.64
74958;BME280;63741;42.624;26.276;2023-04-03T05:34:46;99156.16;;;10.08;62.51
74958;BME280;63741;42.624;26.276;2023-04-03T05:37:13;99155.63;;;10.25;62.44
74958;BME280;63741;42.624;26.276;2023-04-03T05:39:41;99167.81;;;10.37;63.03
74958;BME280;63741;42.624;26.276;2023-04-03T05:42:09;99166.34;;;10.75;62.20
74958;BME280;63741;42.624;26.276;2023-04-03T05:44:38;99166.47;;;10.95;61.10
74958;BME280;63741;42.624;26.276;2023-04-03T05:47:05;99164.13;;;11.11;61.55
74958;BME280;63741;42.624;26.276;2023-04-03T05:49:32;99155.78;;;11.16;62.05
74958;BME280;63741;42.624;26.276;2023-04-03T05:52:00;99156.03;;;11.43;60.74
74958;BME280;63741;42.624;26.276;2023-04-03T05:54:30;99156.03;;;11.53;60.21
74958;BME280;63741;42.624;26.276;2023-04-03T05:57:04;99154.81;;;11.67;59.70
74958;BME280;63741;42.624;26.276;2023-04-03T05:59:31;99154.97;;;11.75;59.47
74958;BME280;63741;42.624;26.276;2023-04-03T06:01:59;99147.69;;;11.67;60.43
74958;BME280;63741;42.624;26.276;2023-04-03T06:04:27;99152.72;;;11.80;60.17
74958;BME280;63741;42.624;26.276;2023-04-03T06:06:56;99156.63;;;11.66;60.57
74958;BME280;63741;42.624;26.276;2023-04-03T06:09:26;99151.31;;;11.66;60.09
74958;BME280;63741;42.624;26.276;2023-04-03T06:11:55;99145.16;;;11.56;60.80
74958;BME280;63741;42.624;26.276;2023-04-03T06:14:26;99144.47;;;11.63;60.59
74958;BME280;63741;42.624;26.276;2023-04-03T06:16:54;99148.28;;;11.90;59.90
74958;BME280;63741;42.624;26.276;2023-04-03T06:19:22;99153.16;;;12.04;59.03
74958;BME280;63741;42.624;26.276;2023-04-03T06:21:53;99167.41;;;11.84;60.61
74958;BME280;63741;42.624;26.276;2023-04-03T06:24:20;99171.16;;;12.01;60.70
74958;BME280;63741;42.624;26.276;2023-04-03T06:26:49;99176.06;;;12.25;59.87
74958;BME280;63741;42.624;26.276;2023-04-03T06:29:18;99181.31;;;12.44;58.61
74958;BME280;63741;42.624;26.276;2023-04-03T06:31:46;99186.09;;;12.50;59.21
74958;BME280;63741;42.624;26.276;2023-04-03T06:34:13;99176.25;;;12.70;59.05
74958;BME280;63741;42.624;26.276;2023-04-03T06:36:40;99178.63;;;12.73;59.22
74958;BME280;63741;42.624;26.276;2023-04-03T06:43:40;99188.81;;;12.78;59.88
74958;BME280;63741;42.624;26.276;2023-04-03T06:46:13;99186.13;;;12.87;58.84
74958;BME280;63741;42.624;26.276;2023-04-03T06:48:40;99184.34;;;12.78;57.71
74958;BME280;63741;42.624;26.276;2023-04-03T06:51:21;99201.75;;;13.00;57.36
74958;BME280;63741;42.624;26.276;2023-04-03T06:53:50;99204.91;;;13.13;56.28
74958;BME280;63741;42.624;26.276;2023-04-03T06:56:18;99196.78;;;13.15;56.24
74958;BME280;63741;42.624;26.276;2023-04-03T06:58:45;99200.47;;;13.42;55.59
74958;BME280;63741;42.624;26.276;2023-04-03T07:01:16;99207.41;;;13.52;55.36
74958;BME280;63741;42.624;26.276;2023-04-03T07:03:43;99198.25;;;13.82;56.25
74958;BME280;63741;42.624;26.276;2023-04-03T07:06:12;99206.53;;;13.79;54.41
74958;BME280;63741;42.624;26.276;2023-04-03T07:08:39;99203.28;;;13.68;55.20
74958;BME280;63741;42.624;26.276;2023-04-03T07:11:07;99196.41;;;13.65;55.79
74958;BME280;63741;42.624;26.276;2023-04-03T07:13:34;99190.00;;;13.85;55.85
74958;BME280;63741;42.624;26.276;2023-04-03T07:16:02;99190.53;;;13.89;54.35
74958;BME280;63741;42.624;26.276;2023-04-03T07:18:30;99194.94;;;13.98;54.90
74958;BME280;63741;42.624;26.276;2023-04-03T07:20:58;99194.13;;;13.98;54.73
74958;BME280;63741;42.624;26.276;2023-04-03T07:23:24;99190.31;;;14.18;52.95
74958;BME280;63741;42.624;26.276;2023-04-03T07:25:51;99179.38;;;14.21;53.51
74958;BME280;63741;42.624;26.276;2023-04-03T07:28:20;99183.41;;;14.25;52.81
74958;BME280;63741;42.624;26.276;2023-04-03T07:30:53;99185.97;;;14.53;51.50
74958;BME280;63741;42.624;26.276;2023-04-03T07:33:23;99195.47;;;14.81;50.93
74958;BME280;63741;42.624;26.276;2023-04-03T07:35:54;99189.94;;;14.75;50.88
74958;BME280;63741;42.624;26.276;2023-04-03T07:38:22;99182.16;;;14.81;51.34
74958;BME280;63741;42.624;26.276;2023-04-03T07:40:50;99187.34;;;14.83;50.56
74958;BME280;63741;42.624;26.276;2023-04-03T07:43:20;99193.06;;;14.70;50.27
74958;BME280;63741;42.624;26.276;2023-04-03T07:45:48;99186.34;;;14.58;50.87
74958;BME280;63741;42.624;26.276;2023-04-03T07:48:19;99195.53;;;14.89;51.34
74958;BME280;63741;42.624;26.276;2023-04-03T07:50:49;99195.00;;;14.86;50.56
74958;BME280;63741;42.624;26.276;2023-04-03T07:53:40;99199.84;;;14.90;49.55
74958;BME280;63741;42.624;26.276;2023-04-03T07:56:13;99209.84;;;14.88;50.31
74958;BME280;63741;42.624;26.276;2023-04-03T07:58:43;99204.22;;;15.00;49.26
74958;BME280;63741;42.624;26.276;2023-04-03T08:01:10;99210.50;;;14.90;49.25
74958;BME280;63741;42.624;26.276;2023-04-03T08:03:38;99200.59;;;15.01;49.29
74958;BME280;63741;42.624;26.276;2023-04-03T08:06:07;99203.63;;;15.06;49.66
74958;BME280;63741;42.624;26.276;2023-04-03T08:08:41;99199.78;;;15.08;49.82
74958;BME280;63741;42.624;26.276;2023-04-03T08:11:10;99202.91;;;15.30;49.88
74958;BME280;63741;42.624;26.276;2023-04-03T08:13:37;99207.69;;;15.26;52.58
74958;BME280;63741;42.624;26.276;2023-04-03T08:16:17;99213.63;;;15.46;54.22
74958;BME280;63741;42.624;26.276;2023-04-03T08:18:44;99211.31;;;15.17;53.50
74958;BME280;63741;42.624;26.276;2023-04-03T08:21:14;99209.13;;;15.12;52.45
74958;BME280;63741;42.624;26.276;2023-04-03T08:23:41;99207.44;;;15.37;51.94
74958;BME280;63741;42.624;26.276;2023-04-03T08:26:10;99197.28;;;15.83;51.55
74958;BME280;63741;42.624;26.276;2023-04-03T08:28:37;99185.59;;;15.68;50.54
74958;BME280;63741;42.624;26.276;2023-04-03T08:31:06;99193.84;;;15.57;51.86
74958;BME280;63741;42.624;26.276;2023-04-03T08:33:34;99191.75;;;15.34;50.55
74958;BME280;63741;42.624;26.276;2023-04-03T08:36:05;99198.31;;;15.48;52.13
74958;BME280;63741;42.624;26.276;2023-04-03T08:38:32;99194.19;;;15.62;52.56
74958;BME280;63741;42.624;26.276;2023-04-03T08:41:38;99192.47;;;15.53;52.49
74958;BME280;63741;42.624;26.276;2023-04-03T08:47:22;99186.34;;;15.60;54.02
74958;BME280;63741;42.624;26.276;2023-04-03T08:49:52;99180.69;;;15.55;54.77
74958;BME280;63741;42.624;26.276;2023-04-03T08:55:05;99174.13;;;15.92;55.18
74958;BME280;63741;42.624;26.276;2023-04-03T08:57:36;99179.47;;;16.00;55.30
74958;BME280;63741;42.624;26.276;2023-04-03T09:00:06;99171.97;;;16.28;54.93
74958;BME280;63741;42.624;26.276;2023-04-03T09:03:00;99169.97;;;16.63;51.32
74958;BME280;63741;42.624;26.276;2023-04-03T09:05:43;99170.09;;;17.02;51.06
74958;BME280;63741;42.624;26.276;2023-04-03T09:10:39;99173.19;;;17.22;48.71
74958;BME280;63741;42.624;26.276;2023-04-03T09:15:37;99172.63;;;17.74;46.60
74958;BME280;63741;42.624;26.276;2023-04-03T09:18:27;99168.31;;;17.96;47.67
74958;BME280;63741;42.624;26.276;2023-04-03T09:21:13;99169.53;;;17.85;45.47
74958;BME280;63741;42.624;26.276;2023-04-03T09:23:56;99162.50;;;17.53;44.06
74958;BME280;63741;42.624;26.276;2023-04-03T09:26:29;99161.59;;;17.77;46.52
74958;BME280;63741;42.624;26.276;2023-04-03T09:29:00;99159.81;;;17.61;45.47
74958;BME280;63741;42.624;26.276;2023-04-03T09:31:40;99162.13;;;17.64;47.00
74958;BME280;63741;42.624;26.276;2023-04-03T09:36:47;99155.63;;;17.59;45.71
74958;BME280;63741;42.624;26.276;2023-04-03T09:39:24;99152.78;;;17.60;46.19
74958;BME280;63741;42.624;26.276;2023-04-03T09:42:01;99160.22;;;17.50;44.28
74958;BME280;63741;42.624;26.276;2023-04-03T09:44:32;99151.06;;;17.67;45.19
74958;BME280;63741;42.624;26.276;2023-04-03T09:46:59;99145.88;;;17.74;45.56
74958;BME280;63741;42.624;26.276;2023-04-03T09:49:43;99138.19;;;18.17;45.88
74958;BME280;63741;42.624;26.276;2023-04-03T09:52:26;99143.25;;;18.12;43.71
74958;BME280;63741;42.624;26.276;2023-04-03T09:54:53;99146.19;;;18.02;44.24
74958;BME280;63741;42.624;26.276;2023-04-03T09:57:20;99132.50;;;17.97;44.97
74958;BME280;63741;42.624;26.276;2023-04-03T09:59:57;99123.84;;;18.18;44.05
74958;BME280;63741;42.624;26.276;2023-04-03T10:02:38;99140.44;;;17.90;43.72
74958;BME280;63741;42.624;26.276;2023-04-03T10:05:26;99140.25;;;17.61;44.09
74958;BME280;63741;42.624;26.276;2023-04-03T10:08:08;99133.63;;;17.49;44.96
74958;BME280;63741;42.624;26.276;2023-04-03T10:10:36;99131.25;;;17.54;43.28
74958;BME280;63741;42.624;26.276;2023-04-03T10:13:11;99126.16;;;17.75;43.09
74958;BME280;63741;42.624;26.276;2023-04-03T10:18:30;99128.78;;;17.83;43.29
74958;BME280;63741;42.624;26.276;2023-04-03T10:24:28;99128.88;;;17.59;40.86
74958;BME280;63741;42.624;26.276;2023-04-03T10:43:53;99133.81;;;17.47;41.98
74958;BME280;63741;42.624;26.276;2023-04-03T10:53:24;99128.22;;;17.26;42.25
74958;BME280;63741;42.624;26.276;2023-04-03T10:56:02;99121.19;;;17.33;42.58
74958;BME280;63741;42.624;26.276;2023-04-03T10:58:43;99121.19;;;17.33;43.22
74958;BME280;63741;42.624;26.276;2023-04-03T11:01:16;99119.09;;;17.12;42.18
74958;BME280;63741;42.624;26.276;2023-04-03T11:03:49;99110.56;;;17.16;41.66
74958;BME280;63741;42.624;26.276;2023-04-03T11:06:21;99097.69;;;17.20;41.49
74958;BME280;63741;42.624;26.276;2023-04-03T11:11:25;99096.03;;;17.19;42.10
74958;BME280;63741;42.624;26.276;2023-04-03T11:14:03;99090.50;;;17.21;42.29
74958;BME280;63741;42.624;26.276;2023-04-03T11:16:36;99075.69;;;17.41;42.14
74958;BME280;63741;42.624;26.276;2023-04-03T11:19:21;99074.16;;;17.47;41.34
74958;BME280;63741;42.624;26.276;2023-04-03T11:21:57;99069.97;;;17.44;41.69
74958;BME280;63741;42.624;26.276;2023-04-03T11:24:32;99061.94;;;17.21;43.42
74958;BME280;63741;42.624;26.276;2023-04-03T11:27:01;99079.47;;;16.84;43.34
74958;BME280;63741;42.624;26.276;2023-04-03T11:29:34;99075.19;;;16.75;43.15
74958;BME280;63741;42.624;26.276;2023-04-03T11:35:23;99069.31;;;16.72;43.76
74958;BME280;63741;42.624;26.276;2023-04-03T11:37:52;99079.81;;;16.65;44.00
74958;BME280;63741;42.624;26.276;2023-04-03T11:40:24;99073.81;;;16.71;44.54
74958;BME280;63741;42.624;26.276;2023-04-03T11:43:07;99087.38;;;16.53;43.87
74958;BME280;63741;42.624;26.276;2023-04-03T11:45:37;99089.06;;;16.46;45.03
74958;BME280;63741;42.624;26.276;2023-04-03T11:50:56;99080.53;;;16.59;45.49
74958;BME280;63741;42.624;26.276;2023-04-03T11:53:32;99084.34;;;16.64;44.13
74958;BME280;63741;42.624;26.276;2023-04-03T11:56:33;99087.69;;;16.58;43.44
74958;BME280;63741;42.624;26.276;2023-04-03T12:01:44;99085.03;;;16.58;44.91
74958;BME280;63741;42.624;26.276;2023-04-03T12:04:13;99072.22;;;16.46;44.99
74958;BME280;63741;42.624;26.276;2023-04-03T12:12:36;99070.44;;;16.13;44.33
74958;BME280;63741;42.624;26.276;2023-04-03T12:21:12;99075.13;;;15.95;49.05
74958;BME280;63741;42.624;26.276;2023-04-03T12:43:02;99063.44;;;15.72;52.44
74958;BME280;63741;42.624;26.276;2023-04-03T12:46:01;99058.09;;;15.80;53.45
74958;BME280;63741;42.624;26.276;2023-04-03T12:48:38;99053.38;;;15.57;54.29
74958;BME280;63741;42.624;26.276;2023-04-03T12:51:05;99054.09;;;15.68;54.12
74958;BME280;63741;42.624;26.276;2023-04-03T12:53:35;99055.25;;;15.65;52.27
74958;BME280;63741;42.624;26.276;2023-04-03T12:56:28;99062.25;;;15.74;50.67
74958;BME280;63741;42.624;26.276;2023-04-03T12:59:21;99061.59;;;15.64;51.34
74958;BME280;63741;42.624;26.276;2023-04-03T13:01:57;99056.41;;;15.71;51.92
74958;BME280;63741;42.624;26.276;2023-04-03T13:04:25;99057.59;;;15.68;51.30
74958;BME280;63741;42.624;26.276;2023-04-03T13:06:53;99060.91;;;15.54;51.93
74958;BME280;63741;42.624;26.276;2023-04-03T13:09:23;99070.19;;;15.41;53.20
74958;BME280;63741;42.624;26.276;2023-04-03T13:14:25;99067.00;;;15.30;56.29
74958;BME280;63741;42.624;26.276;2023-04-03T13:17:13;99054.84;;;15.27;55.40
74958;BME280;63741;42.624;26.276;2023-04-03T13:19:41;99048.78;;;15.09;56.38
74958;BME280;63741;42.624;26.276;2023-04-03T13:22:36;99041.31;;;15.12;59.24
74958;BME280;63741;42.624;26.276;2023-04-03T13:25:09;99041.00;;;15.15;59.76
74958;BME280;63741;42.624;26.276;2023-04-03T13:27:38;99032.81;;;15.09;58.92
74958;BME280;63741;42.624;26.276;2023-04-03T13:30:17;99028.09;;;14.95;58.85
74958;BME280;63741;42.624;26.276;2023-04-03T13:32:46;99018.81;;;15.07;59.83
74958;BME280;63741;42.624;26.276;2023-04-03T13:35:32;99025.78;;;15.00;58.73
74958;BME280;63741;42.624;26.276;2023-04-03T13:38:26;99021.78;;;14.87;58.78
74958;BME280;63741;42.624;26.276;2023-04-03T13:40:54;99015.50;;;15.05;60.00
74958;BME280;63741;42.624;26.276;2023-04-03T13:43:27;99014.53;;;15.14;59.06
74958;BME280;63741;42.624;26.276;2023-04-03T13:48:38;99013.66;;;15.05;59.42
74958;BME280;63741;42.624;26.276;2023-04-03T13:51:17;99020.31;;;15.01;59.09
74958;BME280;63741;42.624;26.276;2023-04-03T13:56:24;99026.53;;;15.18;58.75
74958;BME280;63741;42.624;26.276;2023-04-03T13:59:05;99021.16;;;15.02;59.39
74958;BME280;63741;42.624;26.276;2023-04-03T14:01:45;99031.13;;;15.00;60.66
74958;BME280;63741;42.624;26.276;2023-04-03T14:04:19;99027.47;;;15.01;59.98
74958;BME280;63741;42.624;26.276;2023-04-03T14:06:47;99028.63;;;14.98;60.02
74958;BME280;63741;42.624;26.276;2023-04-03T14:09:15;99028.44;;;14.91;59.96
74958;BME280;63741;42.624;26.276;2023-04-03T14:11:43;99021.03;;;15.28;57.89
74958;BME280;63741;42.624;26.276;2023-04-03T14:14:18;99019.84;;;15.14;59.06
74958;BME280;63741;42.624;26.276;2023-04-03T14:16:50;99016.16;;;15.07;57.46
74958;BME280;63741;42.624;26.276;2023-04-03T14:19:27;99019.81;;;15.06;57.94
74958;BME280;63741;42.624;26.276;2023-04-03T14:21:55;99023.50;;;15.13;58.07
74958;BME280;63741;42.624;26.276;2023-04-03T14:24:23;99020.47;;;15.00;58.61
74958;BME280;63741;42.624;26.276;2023-04-03T14:26:52;99028.75;;;14.88;58.38
74958;BME280;63741;42.624;26.276;2023-04-03T14:29:20;99029.78;;;15.04;59.12
74958;BME280;63741;42.624;26.276;2023-04-03T14:31:49;99029.78;;;14.96;58.41
74958;BME280;63741;42.624;26.276;2023-04-03T14:34:25;99030.03;;;15.19;57.84
74958;BME280;63741;42.624;26.276;2023-04-03T14:36:52;99032.47;;;15.04;58.47
74958;BME280;63741;42.624;26.276;2023-04-03T14:39:20;99030.06;;;14.84;60.11
74958;BME280;63741;42.624;26.276;2023-04-03T14:41:47;99018.47;;;14.59;60.32
74958;BME280;63741;42.624;26.276;2023-04-03T14:44:14;99017.38;;;14.70;60.66
74958;BME280;63741;42.624;26.276;2023-04-03T14:46:42;99025.69;;;14.67;60.35
74958;BME280;63741;42.624;26.276;2023-04-03T14:49:26;99024.81;;;14.58;61.36
74958;BME280;63741;42.624;26.276;2023-04-03T14:51:56;99030.34;;;14.39;62.17
74958;BME280;63741;42.624;26.276;2023-04-03T14:54:24;99018.91;;;14.47;61.62
74958;BME280;63741;42.624;26.276;2023-04-03T14:56:57;99021.00;;;14.35;62.03